San Marino, California
Current Conditions -  °F | °C
As of 7:58 PM on Thursday 23 Oct 2014 (Local Time) from KEMT Reporting Station
Clear Clear  
Wind Chill: 75°   Ceiling: Unl
Heat Index: 75°   Visibility: 10mi
Dew Point: 55°   Wind: 3mph
Humidity: 50%   Direction: 210°SSW
Pressure: 29.95"   Gusts: NA
Location:  34.12°N, 118.1°W
Report Text: KEMT 240258Z 21003KT 10SM CLR 24/13 A2995 RMK LAST
Loading
Personal Weather Stations






























Interactive Weather Map
Tropical Storm Tracking
New forecast layout! Learn more

10-Day Weather Forecast

Advertisements
Track Severe Weather on mobile